Kansas City, Missouri
Traffic Map
Current Weather Conditions
Kansas City, Missouri
Clear
Clear
69°
Feels Like: 69°
Wind Chill: 69° Ceiling: Unl
Heat Index: 69° Visibility: 10mi
Dew Point: 36° Wind: 5mph
Humidity: 30% Direction: 50° (NE)
Pressure: 30.01in Gusts: 0mph
Raw Report DataKMKC 060054Z 05004KT 10SM CLR 21/02 A3001 RMK AO2 SLP160 T02060022
Traffic Incident Summary
Active as of:
Severity:
Category:
InformationThere was an issue retrieving the traffic information for this location. Please try a different location or try again shortly.
Advertisements
Track Severe Weather on mobile